Wilson Gaeta — 8PTS — position and weather

sailwx.info

Track history (hours):
 
Tides and Currents Weather Stations Pressure Air Temp Water Temp Dewpoint Dewpoint Depression Visibility Wind Speed Wind Dir Waves Ship Positions

Wilson Gaeta

Last reported at 2017-May-22 11:24 UTC. Time now 2017-May-22 23:21 UTC.
Position N 56°04' E 005°34'.

Length 88 m; draft 5.4 m.

Type: Ship. MMSI: 314237000.

Date/timePositionNaut miles runAvg speedWind from/ knotsBaromVisibWave heightAir tempDewpointWater temp
2017-May-22 11:24N 56°04' E 005°34'138 9.1
2017-May-21 20:10N 58°21' E 005°01'2 8.3
2017-May-21 19:54N 58°23' E 005°01'3 8.3
2017-May-21 19:31N 58°26' E 005°00'4 8.5
2017-May-21 19:01N 58°30' E 004°58'5 8.6
2017-May-21 18:28N 58°35' E 004°56'4 8.7
2017-May-21 18:01N 58°39' E 004°55'4 8.4
2017-May-21 17:31N 58°43' E 004°53'4 8.2
2017-May-21 17:00N 58°47' E 004°51'4 8.4
2017-May-21 16:31N 58°51' E 004°50'4 8.3
2017-May-21 16:00N 58°55' E 004°48'9 8.3
2017-May-21 14:58N 59°04' E 004°45'96 8.2
2017-May-21 03:19N 60°39' E 004°20'3 7.7
2017-May-21 03:00N 60°41' E 004°20'4 8.1
2017-May-21 02:30N 60°45' E 004°19'4 8.3
2017-May-21 02:00N 60°49' E 004°18'4 8.0
2017-May-21 01:30N 60°53' E 004°17'4 8.0
2017-May-21 01:00N 60°57' E 004°16'4 8.0
2017-May-21 00:30N 61°01' E 004°17'4 7.8
2017-May-21 00:00N 61°05' E 004°17'4 7.9
2017-May-20 23:30N 61°09' E 004°18'4 7.5
2017-May-20 23:00N 61°13' E 004°18'4 7.6
2017-May-20 22:30N 61°16' E 004°19'4 7.6
2017-May-20 22:00N 61°20' E 004°20'4 7.6
2017-May-20 21:30N 61°24' E 004°21'4 7.9
2017-May-20 21:00N 61°28' E 004°22'4 7.8
2017-May-20 20:30N 61°32' E 004°23'4 7.9
2017-May-20 20:00N 61°36' E 004°23'4 7.8
2017-May-20 19:30N 61°40' E 004°25'4 7.9
2017-May-20 19:00N 61°43' E 004°28'4 8.1
2017-May-20 18:30N 61°47' E 004°30'4 7.9
2017-May-20 18:00N 61°51' E 004°32'4 7.8
2017-May-20 17:30N 61°55' E 004°35'4 7.6
2017-May-20 17:01N 61°58' E 004°38'4 7.8
2017-May-20 16:31N 62°02' E 004°41'4 8.5
2017-May-20 16:00N 62°06' E 004°43'4 8.7
2017-May-20 15:31N 62°10' E 004°46'4 8.5
2017-May-20 15:00N 62°14' E 004°49'4 8.6
2017-May-20 14:30N 62°18' E 004°52'9 8.7
2017-May-20 13:30N 62°27' E 004°58'4 8.8
2017-May-20 13:00N 62°31' E 005°02'4 8.6
2017-May-20 12:30N 62°34' E 005°08'4 8.7
2017-May-20 12:00N 62°37' E 005°14'4 8.7
2017-May-20 11:30N 62°40' E 005°21'4 8.5
2017-May-20 11:01N 62°43' E 005°27'4 8.3
2017-May-20 10:31N 62°46' E 005°34'4 8.4
2017-May-20 10:00N 62°48' E 005°42'4 8.5
2017-May-20 09:30N 62°50' E 005°51'4 8.4
2017-May-20 09:00N 62°52' E 005°59'4 8.8
2017-May-20 08:30N 62°53' E 006°08'4 8.7
2017-May-20 08:00N 62°55' E 006°16'4 9.0
2017-May-20 07:30N 62°58' E 006°24'4 8.9
2017-May-20 07:00N 63°01' E 006°32'5 9.1
2017-May-20 06:30N 63°03' E 006°40'4 8.9
2017-May-20 06:01N 63°06' E 006°48'5 8.8
2017-May-20 05:30N 63°09' E 006°56'4 8.8
2017-May-20 05:01N 63°10' E 007°05'4 8.8
2017-May-20 04:31N 63°12' E 007°14'4 9.0
2017-May-20 04:01N 63°14' E 007°23'4 8.8
2017-May-20 03:31N 63°15' E 007°32'5 9.9
2017-May-20 03:01N 63°14' E 007°43'510.5
2017-May-20 02:30N 63°13' E 007°54'611.2
2017-May-20 02:01N 63°16' E 008°06'510.9
2017-May-20 01:30N 63°19' E 008°16'510.6
2017-May-20 01:00N 63°22' E 008°24'610.8
2017-May-20 00:30N 63°25' E 008°35'510.6
2017-May-19 23:59N 63°27' E 008°46'510.9
2017-May-19 23:30N 63°29' E 008°58'611.5
2017-May-19 23:00N 63°31' E 009°09'611.1
2017-May-19 22:30N 63°34' E 009°20'611.2
2017-May-19 22:00N 63°37' E 009°31'611.2
2017-May-19 21:30N 63°39' E 009°42'4 8.5
2017-May-19 21:00N 63°36' E 009°48'5 9.8
2017-May-19 20:30N 63°32' E 009°53'5 9.2
2017-May-19 20:00N 63°28' E 010°01'510.4
2017-May-19 19:30N 63°30' E 010°12'510.3
2017-May-19 19:00N 63°33' E 010°22'510.6
2017-May-19 18:30N 63°36' E 010°32'510.6
2017-May-19 18:00N 63°39' E 010°41'510.5
2017-May-19 17:30N 63°42' E 010°51'510.3
2017-May-19 17:00N 63°45' E 010°59'510.6
2017-May-19 16:30N 63°50' E 011°05'510.6
2017-May-19 16:00N 63°55' E 011°05'4 7.1
2017-May-19 15:30N 63°59' E 011°06'0 0.0
2017-May-19 15:00N 63°59' E 011°06'0 0.0
2017-May-19 14:00N 63°59' E 011°06'0 0.0
2017-May-19 13:30N 63°59' E 011°06'0 0.0
2017-May-19 13:00N 63°59' E 011°06'0 0.0
2017-May-19 12:30N 63°59' E 011°06'0 0.0
2017-May-19 12:00N 63°59' E 011°06'0 0.0
2017-May-19 11:30N 63°59' E 011°06'0 0.0
2017-May-19 11:00N 63°59' E 011°06'0 0.0
2017-May-19 10:30N 63°59' E 011°06'0 0.0
2017-May-19 10:00N 63°59' E 011°06'0 0.0
2017-May-19 09:30N 63°59' E 011°06'0 0.0
2017-May-19 09:00N 63°59' E 011°06'0 0.0
2017-May-19 08:30N 63°59' E 011°06'0 0.0
2017-May-19 08:00N 63°59' E 011°06'0 0.0
2017-May-19 07:30N 63°59' E 011°06'0 0.0
2017-May-19 07:00N 63°59' E 011°06'0 0.0
2017-May-19 06:30N 63°59' E 011°06'0 0.0
2017-May-19 06:00N 63°59' E 011°06'0 0.0
2017-May-19 05:30N 63°59' E 011°06'0 0.0
2017-May-19 05:00N 63°59' E 011°06'0 0.0
2017-May-19 04:30N 63°59' E 011°06'0 0.0
2017-May-19 03:57N 63°59' E 011°06'0 0.0
2017-May-19 03:30N 63°59' E 011°06'0 0.0
2017-May-19 03:00N 63°59' E 011°06'0 0.0
2017-May-19 02:30N 63°59' E 011°06'0 0.0
2017-May-19 02:00N 63°59' E 011°06'0 0.0
2017-May-19 01:21N 63°59' E 011°06'0 0.0
2017-May-19 01:00N 63°59' E 011°06'0 0.0
2017-May-19 00:30N 63°59' E 011°06'0 0.0
2017-May-19 00:00N 63°59' E 011°06'0 0.0
2017-May-18 23:30N 63°59' E 011°06'0 0.0
2017-May-18 23:00N 63°59' E 011°06'0 0.0
2017-May-18 22:30N 63°59' E 011°06'0 0.0
2017-May-18 22:00N 63°59' E 011°06'0 0.0
2017-May-18 21:30N 63°59' E 011°06'0 0.0
2017-May-18 21:00N 63°59' E 011°06'0 0.0
2017-May-18 20:30N 63°59' E 011°06'0 0.0
2017-May-18 19:57N 63°59' E 011°06'0 0.0
2017-May-18 19:30N 63°59' E 011°06'0 0.0
2017-May-18 19:00N 63°59' E 011°06'0 0.0
2017-May-18 18:30N 63°59' E 011°06'0 0.0
2017-May-18 18:00N 63°59' E 011°06'0 0.0
2017-May-18 17:30N 63°59' E 011°06'0 0.0
2017-May-18 17:00N 63°59' E 011°06'0 0.0
2017-May-18 16:30N 63°59' E 011°06'0 0.0
2017-May-18 16:00N 63°59' E 011°06'0 0.0
2017-May-18 15:30N 63°59' E 011°06'0 0.0
2017-May-18 15:00N 63°59' E 011°06'0 0.0
2017-May-18 13:57N 63°59' E 011°06'0 0.0
2017-May-18 13:30N 63°59' E 011°06'0 0.0
2017-May-18 13:00N 63°59' E 011°06'0 0.0
2017-May-18 12:30N 63°59' E 011°06'0 0.0
2017-May-18 11:57N 63°59' E 011°06'0 0.0
2017-May-18 11:30N 63°59' E 011°06'0 0.0
2017-May-18 11:00N 63°59' E 011°06'0 0.0
2017-May-18 10:27N 63°59' E 011°06'0 0.0
2017-May-18 10:00N 63°59' E 011°06'0 0.0
2017-May-18 09:30N 63°59' E 011°06'0 0.0
2017-May-18 09:00N 63°59' E 011°06'0 0.0
2017-May-18 08:30N 63°59' E 011°06'0 0.0
2017-May-18 07:57N 63°59' E 011°06'0 0.0
2017-May-18 07:30N 63°59' E 011°06'0 0.0
2017-May-18 07:00N 63°59' E 011°06'0 0.0
2017-May-18 06:30N 63°59' E 011°06'0 0.0
2017-May-18 06:00N 63°59' E 011°06'0 0.0
2017-May-18 05:30N 63°59' E 011°06'0 0.0
2017-May-18 05:00N 63°59' E 011°06'0 0.0
2017-May-18 04:30N 63°59' E 011°06'0 0.0
2017-May-18 04:00N 63°59' E 011°06'0 0.0
2017-May-18 03:30N 63°59' E 011°06'0 0.0
2017-May-18 03:00N 63°59' E 011°06'0 0.0
2017-May-18 02:30N 63°59' E 011°06'0 0.0
2017-May-18 02:00N 63°59' E 011°06'0 0.0
2017-May-18 01:30N 63°59' E 011°06'0 0.0
2017-May-18 01:00N 63°59' E 011°06'0 0.0
2017-May-18 00:30N 63°59' E 011°06'0 0.0
2017-May-18 00:00N 63°59' E 011°06'0 0.0
2017-May-17 23:30N 63°59' E 011°06'0 0.0
2017-May-17 23:00N 63°59' E 011°06'0 0.0
2017-May-17 22:30N 63°59' E 011°06'0 0.0
2017-May-17 22:00N 63°59' E 011°06'0 0.0
2017-May-17 21:30N 63°59' E 011°06'0 0.0
2017-May-17 21:00N 63°59' E 011°06'0 0.0
2017-May-17 20:30N 63°59' E 011°06'0 0.0
2017-May-17 20:00N 63°59' E 011°06'0 0.0
2017-May-17 19:30N 63°59' E 011°06'0 0.0
2017-May-17 18:45N 63°59' E 011°06'0 0.0
2017-May-17 18:21N 63°59' E 011°06'0 0.0
2017-May-17 18:00N 63°59' E 011°06'0 0.0
2017-May-17 17:30N 63°59' E 011°06'0 0.0
2017-May-17 17:00N 63°59' E 011°06'0 0.0
2017-May-17 16:30N 63°59' E 011°06'0 0.0
2017-May-17 16:00N 63°59' E 011°06'0 0.2
2017-May-17 15:30N 63°59' E 011°06'4 8.0
2017-May-17 15:00N 64°01' E 011°14'1 0.6
2017-May-17 13:59N 64°01' E 011°15'0 0.1
2017-May-17 13:26N 64°01' E 011°15'0 0.1
2017-May-17 12:59N 64°01' E 011°15'0 0.1
2017-May-17 12:29N 64°01' E 011°15'0 0.0
2017-May-17 11:56N 64°01' E 011°15'0 0.0
2017-May-17 11:29N 64°01' E 011°15'0 0.1
2017-May-17 10:59N 64°01' E 011°15'0 0.0
2017-May-17 10:26N 64°01' E 011°15'0 0.0
2017-May-17 09:59N 64°01' E 011°15'0 0.0
2017-May-17 09:29N 64°01' E 011°15'0 0.0
2017-May-17 08:59N 64°01' E 011°15'0 0.0
2017-May-17 07:47N 64°01' E 011°15'0 0.0
2017-May-17 07:29N 64°01' E 011°15'0 0.1
2017-May-17 06:59N 64°01' E 011°14'0 0.0
2017-May-17 06:29N 64°01' E 011°14'0 0.1
2017-May-17 05:59N 64°01' E 011°14'0 0.0
2017-May-17 05:29N 64°01' E 011°14'0 0.0
2017-May-17 04:59N 64°01' E 011°14'0 0.0
2017-May-17 04:29N 64°01' E 011°14'0 0.0
2017-May-17 03:59N 64°01' E 011°14'0 0.0
2017-May-17 03:29N 64°01' E 011°14'0 0.0
2017-May-17 02:59N 64°01' E 011°14'0 0.0
2017-May-17 02:29N 64°01' E 011°14'0 0.0
2017-May-17 01:59N 64°01' E 011°14'0 0.0
2017-May-17 01:29N 64°01' E 011°14'0 0.0
2017-May-17 00:59N 64°01' E 011°14'0 0.0
2017-May-17 00:29N 64°01' E 011°14'0 0.0
2017-May-16 23:59N 64°01' E 011°14'0 0.0
2017-May-16 23:29N 64°01' E 011°14'0 0.0
2017-May-16 22:59N 64°01' E 011°14'0 0.0
2017-May-16 22:29N 64°01' E 011°14'0 0.0
2017-May-16 21:59N 64°01' E 011°14'0 0.0
2017-May-16 21:29N 64°01' E 011°14'0 0.0
2017-May-16 20:59N 64°01' E 011°14'0 0.0
2017-May-16 20:29N 64°01' E 011°14'0 0.0
2017-May-16 19:59N 64°01' E 011°14'0 0.0
2017-May-16 19:29N 64°01' E 011°14'0 0.0
2017-May-16 18:59N 64°01' E 011°14'0 0.0
2017-May-16 18:29N 64°01' E 011°14'0 0.0
2017-May-16 17:59N 64°01' E 011°14'0 0.1
2017-May-16 17:29N 64°01' E 011°14'0 0.0
2017-May-16 16:59N 64°01' E 011°14'0 0.0
2017-May-16 16:29N 64°01' E 011°14'0 0.0
2017-May-16 15:59N 64°01' E 011°14'0 0.0
2017-May-16 15:29N 64°01' E 011°14'1 1.4
2017-May-16 15:00N 64°01' E 011°14'1110.9
2017-May-16 14:00N 63°51' E 011°04'611.4
2017-May-16 13:31N 63°46' E 010°59'611.0
2017-May-16 13:00N 63°42' E 010°50'611.2
2017-May-16 12:30N 63°38' E 010°40'611.3
2017-May-16 12:00N 63°35' E 010°30'611.1
2017-May-16 11:30N 63°32' E 010°20'611.2
2017-May-16 11:00N 63°29' E 010°09'510.1
2017-May-16 10:30N 63°29' E 009°58'5 9.3
2017-May-16 10:00N 63°33' E 009°52'5 9.7
2017-May-16 09:31N 63°37' E 009°47'4 7.2
2017-May-16 09:00N 63°39' E 009°40'5 9.3
2017-May-16 08:30N 63°37' E 009°30'4 8.8
2017-May-16 08:00N 63°37' E 009°20'4 8.6
2017-May-16 07:30N 63°41' E 009°16'510.6
2017-May-16 07:01N 63°45' E 009°25'510.0
2017-May-16 06:30N 63°48' E 009°34'2 4.2
2017-May-16 05:58N 63°49' E 009°38'0 0.0
2017-May-16 05:28N 63°49' E 009°38'0 0.0
2017-May-16 04:58N 63°49' E 009°38'0 0.0
2017-May-16 04:28N 63°49' E 009°38'0 0.0
2017-May-16 03:58N 63°49' E 009°38'0 0.0
2017-May-16 03:28N 63°49' E 009°38'0 0.0
2017-May-16 02:58N 63°49' E 009°38'0 0.0
2017-May-16 02:28N 63°49' E 009°38'0 0.0
2017-May-16 01:58N 63°49' E 009°38'0 0.0
2017-May-16 01:28N 63°49' E 009°38'0 0.0
2017-May-16 00:58N 63°49' E 009°38'0 0.0
2017-May-16 00:28N 63°49' E 009°38'0 0.0
2017-May-15 23:58N 63°49' E 009°38'0 0.0
2017-May-15 23:28N 63°49' E 009°38'0 0.0
2017-May-15 22:58N 63°49' E 009°38'0 0.0
2017-May-15 22:28N 63°49' E 009°38'0 0.0
2017-May-15 21:58N 63°49' E 009°38'0 0.0
2017-May-15 21:28N 63°49' E 009°38'0 0.0
2017-May-15 20:58N 63°49' E 009°38'0 0.0
2017-May-15 20:28N 63°49' E 009°38'0 0.0
2017-May-15 19:58N 63°49' E 009°38'0 0.0
2017-May-15 19:28N 63°49' E 009°38'0 0.0
2017-May-15 18:58N 63°49' E 009°38'0 0.0
2017-May-15 18:28N 63°49' E 009°38'0 0.0
2017-May-15 17:58N 63°49' E 009°38'0 0.0
2017-May-15 17:28N 63°49' E 009°38'0 0.0
2017-May-15 16:58N 63°49' E 009°38'0 0.0
2017-May-15 16:28N 63°49' E 009°38'0 0.0
2017-May-15 15:58N 63°49' E 009°38'0 0.0
2017-May-15 15:28N 63°49' E 009°38'0 0.0
2017-May-15 14:58N 63°49' E 009°38'0 0.0
2017-May-15 13:58N 63°49' E 009°38'0 0.0
2017-May-15 13:28N 63°49' E 009°38'0 0.0
2017-May-15 12:58N 63°49' E 009°38'0 0.0
2017-May-15 12:28N 63°49' E 009°38'0 0.0
2017-May-15 11:58N 63°49' E 009°38'0 0.0
2017-May-15 11:28N 63°49' E 009°38'0 0.0
2017-May-15 10:58N 63°49' E 009°38'0 0.0
2017-May-15 10:28N 63°49' E 009°38'0 0.0
2017-May-15 09:58N 63°49' E 009°38'0 0.0
2017-May-15 09:28N 63°49' E 009°38'0 0.0
2017-May-15 08:58N 63°49' E 009°38'0 0.0
2017-May-15 08:28N 63°49' E 009°38'0 0.0
2017-May-15 07:58N 63°49' E 009°38'0 0.0
2017-May-15 07:28N 63°49' E 009°38'0 0.0
2017-May-15 06:58N 63°49' E 009°38'0 0.0
2017-May-15 06:28N 63°49' E 009°38'0 0.0
2017-May-15 05:58N 63°49' E 009°38'0 0.0
2017-May-15 05:28N 63°49' E 009°38'0 0.0
2017-May-15 04:58N 63°49' E 009°38'0 0.0
2017-May-15 04:28N 63°49' E 009°38'0 0.0
2017-May-15 03:58N 63°49' E 009°38'0 0.0
2017-May-15 03:28N 63°49' E 009°38'0 0.0
2017-May-15 02:58N 63°49' E 009°38'0 0.0
2017-May-15 02:28N 63°49' E 009°38'0 0.1
2017-May-15 01:58N 63°49' E 009°38'0 0.1
2017-May-15 01:30N 63°49' E 009°38'3 6.3
2017-May-15 01:00N 63°47' E 009°33'510.9
2017-May-15 00:30N 63°44' E 009°23'510.4
2017-May-15 00:00N 63°40' E 009°16'610.9
2017-May-14 23:30N 63°34' E 009°16'510.2
2017-May-14 23:00N 63°31' E 009°08'511.0
2017-May-14 22:30N 63°28' E 008°57'610.8
2017-May-14 21:59N 63°26' E 008°45'511.0
2017-May-14 21:30N 63°24' E 008°34'510.8
2017-May-14 21:00N 63°22' E 008°23'511.2
2017-May-14 20:30N 63°18' E 008°14'611.0
2017-May-14 20:00N 63°15' E 008°04'511.1
2017-May-14 19:30N 63°13' E 007°52'510.7
2017-May-14 19:00N 63°14' E 007°41'510.1
2017-May-14 18:30N 63°14' E 007°29'510.3
2017-May-14 18:00N 63°12' E 007°19'510.0
2017-May-14 17:30N 63°10' E 007°09'5 9.8
2017-May-14 17:00N 63°08' E 006°59'5 9.9
2017-May-14 16:30N 63°05' E 006°50'5 9.6
2017-May-14 16:00N 63°02' E 006°41'5 9.6
2017-May-14 15:30N 62°60' E 006°32'5 9.5
2017-May-14 15:00N 62°57' E 006°24'5 9.5
2017-May-14 14:30N 62°54' E 006°16'10 9.4
2017-May-14 13:29N 62°47' E 006°00'5 9.5
2017-May-14 13:00N 62°44' E 005°53'5 9.6
2017-May-14 12:30N 62°41' E 005°46'5 9.2
2017-May-14 12:00N 62°37' E 005°39'5 9.6
2017-May-14 11:30N 62°34' E 005°33'5 9.8
2017-May-14 11:00N 62°30' E 005°26'5 9.8
2017-May-14 10:30N 62°26' E 005°19'5 9.7
2017-May-14 10:00N 62°22' E 005°12'5 9.5
2017-May-14 09:30N 62°19' E 005°06'5 9.2
2017-May-14 09:00N 62°15' E 005°01'5 9.8
2017-May-14 08:30N 62°11' E 004°56'510.0
2017-May-14 08:00N 62°06' E 004°50'510.0
2017-May-14 07:30N 62°02' E 004°45'5 9.4
2017-May-14 07:00N 61°58' E 004°39'510.2
2017-May-14 06:29N 61°53' E 004°34'510.0
2017-May-14 06:00N 61°49' E 004°30'510.1
2017-May-14 05:30N 61°44' E 004°26'510.0
2017-May-14 05:00N 61°39' E 004°22'5 9.9
2017-May-14 04:30N 61°34' E 004°21'5 9.9
2017-May-14 04:00N 61°29' E 004°20'510.1
2017-May-14 03:30N 61°24' E 004°20'510.3
2017-May-14 03:00N 61°19' E 004°19'5 9.9
2017-May-14 02:30N 61°14' E 004°18'510.3
2017-May-14 02:00N 61°09' E 004°18'510.6
2017-May-14 01:30N 61°04' E 004°17'510.5
2017-May-14 01:00N 60°59' E 004°16'1910.2
2017-May-13 23:10N 60°40' E 004°20'12110.3
2017-May-13 11:28N 58°40' E 004°48'510.1
2017-May-13 10:59N 58°35' E 004°49'  
Track history (hours):
 
Tides and Currents Weather Stations Pressure Air Temp Water Temp Dewpoint Dewpoint Depression Visibility Wind Speed Wind Dir Waves Ship Positions

Wilson Gaeta

Last reported at 2017-May-22 11:24 UTC. Time now 2017-May-22 23:21 UTC.
Position N 56°04' E 005°34'.

Length 88 m; draft 5.4 m.

Type: Ship. MMSI: 314237000.

Date/timePositionNaut miles runAvg speedWind from/ knotsBaromVisibWave heightAir tempDewpointWater temp
2017-May-22 11:24N 56°04' E 005°34'138 9.1
2017-May-21 20:10N 58°21' E 005°01'2 8.3
2017-May-21 19:54N 58°23' E 005°01'3 8.3
2017-May-21 19:31N 58°26' E 005°00'4 8.5
2017-May-21 19:01N 58°30' E 004°58'5 8.6
2017-May-21 18:28N 58°35' E 004°56'4 8.7
2017-May-21 18:01N 58°39' E 004°55'4 8.4
2017-May-21 17:31N 58°43' E 004°53'4 8.2
2017-May-21 17:00N 58°47' E 004°51'4 8.4
2017-May-21 16:31N 58°51' E 004°50'4 8.3
2017-May-21 16:00N 58°55' E 004°48'9 8.3
2017-May-21 14:58N 59°04' E 004°45'96 8.2
2017-May-21 03:19N 60°39' E 004°20'3 7.7
2017-May-21 03:00N 60°41' E 004°20'4 8.1
2017-May-21 02:30N 60°45' E 004°19'4 8.3
2017-May-21 02:00N 60°49' E 004°18'4 8.0
2017-May-21 01:30N 60°53' E 004°17'4 8.0
2017-May-21 01:00N 60°57' E 004°16'4 8.0
2017-May-21 00:30N 61°01' E 004°17'4 7.8
2017-May-21 00:00N 61°05' E 004°17'4 7.9
2017-May-20 23:30N 61°09' E 004°18'4 7.5
2017-May-20 23:00N 61°13' E 004°18'4 7.6
2017-May-20 22:30N 61°16' E 004°19'4 7.6
2017-May-20 22:00N 61°20' E 004°20'4 7.6
2017-May-20 21:30N 61°24' E 004°21'4 7.9
2017-May-20 21:00N 61°28' E 004°22'4 7.8
2017-May-20 20:30N 61°32' E 004°23'4 7.9
2017-May-20 20:00N 61°36' E 004°23'4 7.8
2017-May-20 19:30N 61°40' E 004°25'4 7.9
2017-May-20 19:00N 61°43' E 004°28'4 8.1
2017-May-20 18:30N 61°47' E 004°30'4 7.9
2017-May-20 18:00N 61°51' E 004°32'4 7.8
2017-May-20 17:30N 61°55' E 004°35'4 7.6
2017-May-20 17:01N 61°58' E 004°38'4 7.8
2017-May-20 16:31N 62°02' E 004°41'4 8.5
2017-May-20 16:00N 62°06' E 004°43'4 8.7
2017-May-20 15:31N 62°10' E 004°46'4 8.5
2017-May-20 15:00N 62°14' E 004°49'4 8.6
2017-May-20 14:30N 62°18' E 004°52'9 8.7
2017-May-20 13:30N 62°27' E 004°58'4 8.8
2017-May-20 13:00N 62°31' E 005°02'4 8.6
2017-May-20 12:30N 62°34' E 005°08'4 8.7
2017-May-20 12:00N 62°37' E 005°14'4 8.7
2017-May-20 11:30N 62°40' E 005°21'4 8.5
2017-May-20 11:01N 62°43' E 005°27'4 8.3
2017-May-20 10:31N 62°46' E 005°34'4 8.4
2017-May-20 10:00N 62°48' E 005°42'4 8.5
2017-May-20 09:30N 62°50' E 005°51'4 8.4
2017-May-20 09:00N 62°52' E 005°59'4 8.8
2017-May-20 08:30N 62°53' E 006°08'4 8.7
2017-May-20 08:00N 62°55' E 006°16'4 9.0
2017-May-20 07:30N 62°58' E 006°24'4 8.9
2017-May-20 07:00N 63°01' E 006°32'5 9.1
2017-May-20 06:30N 63°03' E 006°40'4 8.9
2017-May-20 06:01N 63°06' E 006°48'5 8.8
2017-May-20 05:30N 63°09' E 006°56'4 8.8
2017-May-20 05:01N 63°10' E 007°05'4 8.8
2017-May-20 04:31N 63°12' E 007°14'4 9.0
2017-May-20 04:01N 63°14' E 007°23'4 8.8
2017-May-20 03:31N 63°15' E 007°32'5 9.9
2017-May-20 03:01N 63°14' E 007°43'510.5
2017-May-20 02:30N 63°13' E 007°54'611.2
2017-May-20 02:01N 63°16' E 008°06'510.9
2017-May-20 01:30N 63°19' E 008°16'510.6
2017-May-20 01:00N 63°22' E 008°24'610.8
2017-May-20 00:30N 63°25' E 008°35'510.6
2017-May-19 23:59N 63°27' E 008°46'510.9
2017-May-19 23:30N 63°29' E 008°58'611.5
2017-May-19 23:00N 63°31' E 009°09'611.1
2017-May-19 22:30N 63°34' E 009°20'611.2
2017-May-19 22:00N 63°37' E 009°31'611.2
2017-May-19 21:30N 63°39' E 009°42'4 8.5
2017-May-19 21:00N 63°36' E 009°48'5 9.8
2017-May-19 20:30N 63°32' E 009°53'5 9.2
2017-May-19 20:00N 63°28' E 010°01'510.4
2017-May-19 19:30N 63°30' E 010°12'510.3
2017-May-19 19:00N 63°33' E 010°22'510.6
2017-May-19 18:30N 63°36' E 010°32'510.6
2017-May-19 18:00N 63°39' E 010°41'510.5
2017-May-19 17:30N 63°42' E 010°51'510.3
2017-May-19 17:00N 63°45' E 010°59'510.6
2017-May-19 16:30N 63°50' E 011°05'510.6
2017-May-19 16:00N 63°55' E 011°05'4 7.1
2017-May-19 15:30N 63°59' E 011°06'0 0.0
2017-May-19 15:00N 63°59' E 011°06'0 0.0
2017-May-19 14:00N 63°59' E 011°06'0 0.0
2017-May-19 13:30N 63°59' E 011°06'0 0.0
2017-May-19 13:00N 63°59' E 011°06'0 0.0
2017-May-19 12:30N 63°59' E 011°06'0 0.0
2017-May-19 12:00N 63°59' E 011°06'0 0.0
2017-May-19 11:30N 63°59' E 011°06'0 0.0
2017-May-19 11:00N 63°59' E 011°06'0 0.0
2017-May-19 10:30N 63°59' E 011°06'0 0.0
2017-May-19 10:00N 63°59' E 011°06'0 0.0
2017-May-19 09:30N 63°59' E 011°06'0 0.0
2017-May-19 09:00N 63°59' E 011°06'0 0.0
2017-May-19 08:30N 63°59' E 011°06'0 0.0
2017-May-19 08:00N 63°59' E 011°06'0 0.0
2017-May-19 07:30N 63°59' E 011°06'0 0.0
2017-May-19 07:00N 63°59' E 011°06'0 0.0
2017-May-19 06:30N 63°59' E 011°06'0 0.0
2017-May-19 06:00N 63°59' E 011°06'0 0.0
2017-May-19 05:30N 63°59' E 011°06'0 0.0
2017-May-19 05:00N 63°59' E 011°06'0 0.0
2017-May-19 04:30N 63°59' E 011°06'0 0.0
2017-May-19 03:57N 63°59' E 011°06'0 0.0
2017-May-19 03:30N 63°59' E 011°06'0 0.0
2017-May-19 03:00N 63°59' E 011°06'0 0.0
2017-May-19 02:30N 63°59' E 011°06'0 0.0
2017-May-19 02:00N 63°59' E 011°06'0 0.0
2017-May-19 01:21N 63°59' E 011°06'0 0.0
2017-May-19 01:00N 63°59' E 011°06'0 0.0
2017-May-19 00:30N 63°59' E 011°06'0 0.0
2017-May-19 00:00N 63°59' E 011°06'0 0.0
2017-May-18 23:30N 63°59' E 011°06'0 0.0
2017-May-18 23:00N 63°59' E 011°06'0 0.0
2017-May-18 22:30N 63°59' E 011°06'0 0.0
2017-May-18 22:00N 63°59' E 011°06'0 0.0
2017-May-18 21:30N 63°59' E 011°06'0 0.0
2017-May-18 21:00N 63°59' E 011°06'0 0.0
2017-May-18 20:30N 63°59' E 011°06'0 0.0
2017-May-18 19:57N 63°59' E 011°06'0 0.0
2017-May-18 19:30N 63°59' E 011°06'0 0.0
2017-May-18 19:00N 63°59' E 011°06'0 0.0
2017-May-18 18:30N 63°59' E 011°06'0 0.0
2017-May-18 18:00N 63°59' E 011°06'0 0.0
2017-May-18 17:30N 63°59' E 011°06'0 0.0
2017-May-18 17:00N 63°59' E 011°06'0 0.0
2017-May-18 16:30N 63°59' E 011°06'0 0.0
2017-May-18 16:00N 63°59' E 011°06'0 0.0
2017-May-18 15:30N 63°59' E 011°06'0 0.0
2017-May-18 15:00N 63°59' E 011°06'0 0.0
2017-May-18 13:57N 63°59' E 011°06'0 0.0
2017-May-18 13:30N 63°59' E 011°06'0 0.0
2017-May-18 13:00N 63°59' E 011°06'0 0.0
2017-May-18 12:30N 63°59' E 011°06'0 0.0
2017-May-18 11:57N 63°59' E 011°06'0 0.0
2017-May-18 11:30N 63°59' E 011°06'0 0.0
2017-May-18 11:00N 63°59' E 011°06'0 0.0
2017-May-18 10:27N 63°59' E 011°06'0 0.0
2017-May-18 10:00N 63°59' E 011°06'0 0.0
2017-May-18 09:30N 63°59' E 011°06'0 0.0
2017-May-18 09:00N 63°59' E 011°06'0 0.0
2017-May-18 08:30N 63°59' E 011°06'0 0.0
2017-May-18 07:57N 63°59' E 011°06'0 0.0
2017-May-18 07:30N 63°59' E 011°06'0 0.0
2017-May-18 07:00N 63°59' E 011°06'0 0.0
2017-May-18 06:30N 63°59' E 011°06'0 0.0
2017-May-18 06:00N 63°59' E 011°06'0 0.0
2017-May-18 05:30N 63°59' E 011°06'0 0.0
2017-May-18 05:00N 63°59' E 011°06'0 0.0
2017-May-18 04:30N 63°59' E 011°06'0 0.0
2017-May-18 04:00N 63°59' E 011°06'0 0.0
2017-May-18 03:30N 63°59' E 011°06'0 0.0
2017-May-18 03:00N 63°59' E 011°06'0 0.0
2017-May-18 02:30N 63°59' E 011°06'0 0.0
2017-May-18 02:00N 63°59' E 011°06'0 0.0
2017-May-18 01:30N 63°59' E 011°06'0 0.0
2017-May-18 01:00N 63°59' E 011°06'0 0.0
2017-May-18 00:30N 63°59' E 011°06'0 0.0
2017-May-18 00:00N 63°59' E 011°06'0 0.0
2017-May-17 23:30N 63°59' E 011°06'0 0.0
2017-May-17 23:00N 63°59' E 011°06'0 0.0
2017-May-17 22:30N 63°59' E 011°06'0 0.0
2017-May-17 22:00N 63°59' E 011°06'0 0.0
2017-May-17 21:30N 63°59' E 011°06'0 0.0
2017-May-17 21:00N 63°59' E 011°06'0 0.0
2017-May-17 20:30N 63°59' E 011°06'0 0.0
2017-May-17 20:00N 63°59' E 011°06'0 0.0
2017-May-17 19:30N 63°59' E 011°06'0 0.0
2017-May-17 18:45N 63°59' E 011°06'0 0.0
2017-May-17 18:21N 63°59' E 011°06'0 0.0
2017-May-17 18:00N 63°59' E 011°06'0 0.0
2017-May-17 17:30N 63°59' E 011°06'0 0.0
2017-May-17 17:00N 63°59' E 011°06'0 0.0
2017-May-17 16:30N 63°59' E 011°06'0 0.0
2017-May-17 16:00N 63°59' E 011°06'0 0.2
2017-May-17 15:30N 63°59' E 011°06'4 8.0
2017-May-17 15:00N 64°01' E 011°14'1 0.6
2017-May-17 13:59N 64°01' E 011°15'0 0.1
2017-May-17 13:26N 64°01' E 011°15'0 0.1
2017-May-17 12:59N 64°01' E 011°15'0 0.1
2017-May-17 12:29N 64°01' E 011°15'0 0.0
2017-May-17 11:56N 64°01' E 011°15'0 0.0
2017-May-17 11:29N 64°01' E 011°15'0 0.1
2017-May-17 10:59N 64°01' E 011°15'0 0.0
2017-May-17 10:26N 64°01' E 011°15'0 0.0
2017-May-17 09:59N 64°01' E 011°15'0 0.0
2017-May-17 09:29N 64°01' E 011°15'0 0.0
2017-May-17 08:59N 64°01' E 011°15'0 0.0
2017-May-17 07:47N 64°01' E 011°15'0 0.0
2017-May-17 07:29N 64°01' E 011°15'0 0.1
2017-May-17 06:59N 64°01' E 011°14'0 0.0
2017-May-17 06:29N 64°01' E 011°14'0 0.1
2017-May-17 05:59N 64°01' E 011°14'0 0.0
2017-May-17 05:29N 64°01' E 011°14'0 0.0
2017-May-17 04:59N 64°01' E 011°14'0 0.0
2017-May-17 04:29N 64°01' E 011°14'0 0.0
2017-May-17 03:59N 64°01' E 011°14'0 0.0
2017-May-17 03:29N 64°01' E 011°14'0 0.0
2017-May-17 02:59N 64°01' E 011°14'0 0.0
2017-May-17 02:29N 64°01' E 011°14'0 0.0
2017-May-17 01:59N 64°01' E 011°14'0 0.0
2017-May-17 01:29N 64°01' E 011°14'0 0.0
2017-May-17 00:59N 64°01' E 011°14'0 0.0
2017-May-17 00:29N 64°01' E 011°14'0 0.0
2017-May-16 23:59N 64°01' E 011°14'0 0.0
2017-May-16 23:29N 64°01' E 011°14'0 0.0
2017-May-16 22:59N 64°01' E 011°14'0 0.0
2017-May-16 22:29N 64°01' E 011°14'0 0.0
2017-May-16 21:59N 64°01' E 011°14'0 0.0
2017-May-16 21:29N 64°01' E 011°14'0 0.0
2017-May-16 20:59N 64°01' E 011°14'0 0.0
2017-May-16 20:29N 64°01' E 011°14'0 0.0
2017-May-16 19:59N 64°01' E 011°14'0 0.0
2017-May-16 19:29N 64°01' E 011°14'0 0.0
2017-May-16 18:59N 64°01' E 011°14'0 0.0
2017-May-16 18:29N 64°01' E 011°14'0 0.0
2017-May-16 17:59N 64°01' E 011°14'0 0.1
2017-May-16 17:29N 64°01' E 011°14'0 0.0
2017-May-16 16:59N 64°01' E 011°14'0 0.0
2017-May-16 16:29N 64°01' E 011°14'0 0.0
2017-May-16 15:59N 64°01' E 011°14'0 0.0
2017-May-16 15:29N 64°01' E 011°14'1 1.4
2017-May-16 15:00N 64°01' E 011°14'1110.9
2017-May-16 14:00N 63°51' E 011°04'611.4
2017-May-16 13:31N 63°46' E 010°59'611.0
2017-May-16 13:00N 63°42' E 010°50'611.2
2017-May-16 12:30N 63°38' E 010°40'611.3
2017-May-16 12:00N 63°35' E 010°30'611.1
2017-May-16 11:30N 63°32' E 010°20'611.2
2017-May-16 11:00N 63°29' E 010°09'510.1
2017-May-16 10:30N 63°29' E 009°58'5 9.3
2017-May-16 10:00N 63°33' E 009°52'5 9.7
2017-May-16 09:31N 63°37' E 009°47'4 7.2
2017-May-16 09:00N 63°39' E 009°40'5 9.3
2017-May-16 08:30N 63°37' E 009°30'4 8.8
2017-May-16 08:00N 63°37' E 009°20'4 8.6
2017-May-16 07:30N 63°41' E 009°16'510.6
2017-May-16 07:01N 63°45' E 009°25'510.0
2017-May-16 06:30N 63°48' E 009°34'2 4.2
2017-May-16 05:58N 63°49' E 009°38'0 0.0
2017-May-16 05:28N 63°49' E 009°38'0 0.0
2017-May-16 04:58N 63°49' E 009°38'0 0.0
2017-May-16 04:28N 63°49' E 009°38'0 0.0
2017-May-16 03:58N 63°49' E 009°38'0 0.0
2017-May-16 03:28N 63°49' E 009°38'0 0.0
2017-May-16 02:58N 63°49' E 009°38'0 0.0
2017-May-16 02:28N 63°49' E 009°38'0 0.0
2017-May-16 01:58N 63°49' E 009°38'0 0.0
2017-May-16 01:28N 63°49' E 009°38'0 0.0
2017-May-16 00:58N 63°49' E 009°38'0 0.0
2017-May-16 00:28N 63°49' E 009°38'0 0.0
2017-May-15 23:58N 63°49' E 009°38'0 0.0
2017-May-15 23:28N 63°49' E 009°38'0 0.0
2017-May-15 22:58N 63°49' E 009°38'0 0.0
2017-May-15 22:28N 63°49' E 009°38'0 0.0
2017-May-15 21:58N 63°49' E 009°38'0 0.0
2017-May-15 21:28N 63°49' E 009°38'0 0.0
2017-May-15 20:58N 63°49' E 009°38'0 0.0
2017-May-15 20:28N 63°49' E 009°38'0 0.0
2017-May-15 19:58N 63°49' E 009°38'0 0.0
2017-May-15 19:28N 63°49' E 009°38'0 0.0
2017-May-15 18:58N 63°49' E 009°38'0 0.0
2017-May-15 18:28N 63°49' E 009°38'0 0.0
2017-May-15 17:58N 63°49' E 009°38'0 0.0
2017-May-15 17:28N 63°49' E 009°38'0 0.0
2017-May-15 16:58N 63°49' E 009°38'0 0.0
2017-May-15 16:28N 63°49' E 009°38'0 0.0
2017-May-15 15:58N 63°49' E 009°38'0 0.0
2017-May-15 15:28N 63°49' E 009°38'0 0.0
2017-May-15 14:58N 63°49' E 009°38'0 0.0
2017-May-15 13:58N 63°49' E 009°38'0 0.0
2017-May-15 13:28N 63°49' E 009°38'0 0.0
2017-May-15 12:58N 63°49' E 009°38'0 0.0
2017-May-15 12:28N 63°49' E 009°38'0 0.0
2017-May-15 11:58N 63°49' E 009°38'0 0.0
2017-May-15 11:28N 63°49' E 009°38'0 0.0
2017-May-15 10:58N 63°49' E 009°38'0 0.0
2017-May-15 10:28N 63°49' E 009°38'0 0.0
2017-May-15 09:58N 63°49' E 009°38'0 0.0
2017-May-15 09:28N 63°49' E 009°38'0 0.0
2017-May-15 08:58N 63°49' E 009°38'0 0.0
2017-May-15 08:28N 63°49' E 009°38'0 0.0
2017-May-15 07:58N 63°49' E 009°38'0 0.0
2017-May-15 07:28N 63°49' E 009°38'0 0.0
2017-May-15 06:58N 63°49' E 009°38'0 0.0
2017-May-15 06:28N 63°49' E 009°38'0 0.0
2017-May-15 05:58N 63°49' E 009°38'0 0.0
2017-May-15 05:28N 63°49' E 009°38'0 0.0
2017-May-15 04:58N 63°49' E 009°38'0 0.0
2017-May-15 04:28N 63°49' E 009°38'0 0.0
2017-May-15 03:58N 63°49' E 009°38'0 0.0
2017-May-15 03:28N 63°49' E 009°38'0 0.0
2017-May-15 02:58N 63°49' E 009°38'0 0.0
2017-May-15 02:28N 63°49' E 009°38'0 0.1
2017-May-15 01:58N 63°49' E 009°38'0 0.1
2017-May-15 01:30N 63°49' E 009°38'3 6.3
2017-May-15 01:00N 63°47' E 009°33'510.9
2017-May-15 00:30N 63°44' E 009°23'510.4
2017-May-15 00:00N 63°40' E 009°16'610.9
2017-May-14 23:30N 63°34' E 009°16'510.2
2017-May-14 23:00N 63°31' E 009°08'511.0
2017-May-14 22:30N 63°28' E 008°57'610.8
2017-May-14 21:59N 63°26' E 008°45'511.0
2017-May-14 21:30N 63°24' E 008°34'510.8
2017-May-14 21:00N 63°22' E 008°23'511.2
2017-May-14 20:30N 63°18' E 008°14'611.0
2017-May-14 20:00N 63°15' E 008°04'511.1
2017-May-14 19:30N 63°13' E 007°52'510.7
2017-May-14 19:00N 63°14' E 007°41'510.1
2017-May-14 18:30N 63°14' E 007°29'510.3
2017-May-14 18:00N 63°12' E 007°19'510.0
2017-May-14 17:30N 63°10' E 007°09'5 9.8
2017-May-14 17:00N 63°08' E 006°59'5 9.9
2017-May-14 16:30N 63°05' E 006°50'5 9.6
2017-May-14 16:00N 63°02' E 006°41'5 9.6
2017-May-14 15:30N 62°60' E 006°32'5 9.5
2017-May-14 15:00N 62°57' E 006°24'5 9.5
2017-May-14 14:30N 62°54' E 006°16'10 9.4
2017-May-14 13:29N 62°47' E 006°00'5 9.5
2017-May-14 13:00N 62°44' E 005°53'5 9.6
2017-May-14 12:30N 62°41' E 005°46'5 9.2
2017-May-14 12:00N 62°37' E 005°39'5 9.6
2017-May-14 11:30N 62°34' E 005°33'5 9.8
2017-May-14 11:00N 62°30' E 005°26'5 9.8
2017-May-14 10:30N 62°26' E 005°19'5 9.7
2017-May-14 10:00N 62°22' E 005°12'5 9.5
2017-May-14 09:30N 62°19' E 005°06'5 9.2
2017-May-14 09:00N 62°15' E 005°01'5 9.8
2017-May-14 08:30N 62°11' E 004°56'510.0
2017-May-14 08:00N 62°06' E 004°50'510.0
2017-May-14 07:30N 62°02' E 004°45'5 9.4
2017-May-14 07:00N 61°58' E 004°39'510.2
2017-May-14 06:29N 61°53' E 004°34'510.0
2017-May-14 06:00N 61°49' E 004°30'510.1
2017-May-14 05:30N 61°44' E 004°26'510.0
2017-May-14 05:00N 61°39' E 004°22'5 9.9
2017-May-14 04:30N 61°34' E 004°21'5 9.9
2017-May-14 04:00N 61°29' E 004°20'510.1
2017-May-14 03:30N 61°24' E 004°20'510.3
2017-May-14 03:00N 61°19' E 004°19'5 9.9
2017-May-14 02:30N 61°14' E 004°18'510.3
2017-May-14 02:00N 61°09' E 004°18'510.6
2017-May-14 01:30N 61°04' E 004°17'510.5
2017-May-14 01:00N 60°59' E 004°16'1910.2
2017-May-13 23:10N 60°40' E 004°20'12110.3
2017-May-13 11:28N 58°40' E 004°48'510.1
2017-May-13 10:59N 58°35' E 004°49'  

Dump ship's entire track history